sensor_id;sensor_type;location;lat;lon;timestamp;temperature;humidity
14614;DHT22;7393;51.446;6.800;2024-02-21T00:00:52;9.50;1.00
14614;DHT22;7393;51.446;6.800;2024-02-21T00:03:20;9.50;1.00
14614;DHT22;7393;51.446;6.800;2024-02-21T00:05:48;9.50;1.00
14614;DHT22;7393;51.446;6.800;2024-02-21T00:08:16;9.50;1.00
14614;DHT22;7393;51.446;6.800;2024-02-21T00:10:43;9.50;1.00
14614;DHT22;7393;51.446;6.800;2024-02-21T00:13:10;9.50;1.00
14614;DHT22;7393;51.446;6.800;2024-02-21T00:15:37;9.50;1.00
14614;DHT22;7393;51.446;6.800;2024-02-21T00:18:04;9.50;1.00
14614;DHT22;7393;51.446;6.800;2024-02-21T00:20:31;9.50;1.00
14614;DHT22;7393;51.446;6.800;2024-02-21T00:22:58;9.50;1.00
14614;DHT22;7393;51.446;6.800;2024-02-21T00:25:26;9.50;1.00
14614;DHT22;7393;51.446;6.800;2024-02-21T00:27:53;9.60;1.00
14614;DHT22;7393;51.446;6.800;2024-02-21T00:30:20;9.60;1.00
14614;DHT22;7393;51.446;6.800;2024-02-21T00:32:46;9.60;1.00
14614;DHT22;7393;51.446;6.800;2024-02-21T00:35:13;9.60;1.00
14614;DHT22;7393;51.446;6.800;2024-02-21T00:37:40;9.60;1.00
14614;DHT22;7393;51.446;6.800;2024-02-21T00:40:08;9.60;1.00
14614;DHT22;7393;51.446;6.800;2024-02-21T00:42:36;9.60;1.00
14614;DHT22;7393;51.446;6.800;2024-02-21T00:45:03;9.60;1.00
14614;DHT22;7393;51.446;6.800;2024-02-21T00:47:30;9.60;1.00
14614;DHT22;7393;51.446;6.800;2024-02-21T00:49:57;9.60;1.00
14614;DHT22;7393;51.446;6.800;2024-02-21T00:52:24;9.60;1.00
14614;DHT22;7393;51.446;6.800;2024-02-21T00:54:51;9.60;1.00
14614;DHT22;7393;51.446;6.800;2024-02-21T00:57:17;9.60;1.00
14614;DHT22;7393;51.446;6.800;2024-02-21T00:59:45;9.60;1.00
14614;DHT22;7393;51.446;6.800;2024-02-21T01:02:12;9.60;1.00
14614;DHT22;7393;51.446;6.800;2024-02-21T01:04:39;9.60;1.00
14614;DHT22;7393;51.446;6.800;2024-02-21T01:07:06;9.60;1.00
14614;DHT22;7393;51.446;6.800;2024-02-21T01:09:32;9.60;1.00
14614;DHT22;7393;51.446;6.800;2024-02-21T01:11:59;9.60;1.00
14614;DHT22;7393;51.446;6.800;2024-02-21T01:14:26;9.60;1.00
14614;DHT22;7393;51.446;6.800;2024-02-21T01:16:54;9.60;1.00
14614;DHT22;7393;51.446;6.800;2024-02-21T01:19:21;9.60;1.00
14614;DHT22;7393;51.446;6.800;2024-02-21T01:21:48;9.60;1.00
14614;DHT22;7393;51.446;6.800;2024-02-21T01:24:15;9.60;1.00
14614;DHT22;7393;51.446;6.800;2024-02-21T01:26:41;9.60;1.00
14614;DHT22;7393;51.446;6.800;2024-02-21T01:29:08;9.60;1.00
14614;DHT22;7393;51.446;6.800;2024-02-21T01:31:35;9.60;1.00
14614;DHT22;7393;51.446;6.800;2024-02-21T01:34:03;9.60;1.00
14614;DHT22;7393;51.446;6.800;2024-02-21T01:36:30;9.60;1.00
14614;DHT22;7393;51.446;6.800;2024-02-21T01:38:57;9.60;1.00
14614;DHT22;7393;51.446;6.800;2024-02-21T01:41:23;9.60;1.00
14614;DHT22;7393;51.446;6.800;2024-02-21T01:43:51;9.60;1.00
14614;DHT22;7393;51.446;6.800;2024-02-21T01:46:18;9.60;1.00
14614;DHT22;7393;51.446;6.800;2024-02-21T01:48:45;9.60;1.00
14614;DHT22;7393;51.446;6.800;2024-02-21T01:51:14;9.60;1.00
14614;DHT22;7393;51.446;6.800;2024-02-21T01:53:43;9.60;1.00
14614;DHT22;7393;51.446;6.800;2024-02-21T01:56:10;9.60;1.00
14614;DHT22;7393;51.446;6.800;2024-02-21T01:58:40;9.60;1.00
14614;DHT22;7393;51.446;6.800;2024-02-21T02:01:09;9.70;1.00
14614;DHT22;7393;51.446;6.800;2024-02-21T02:03:36;9.70;1.00
14614;DHT22;7393;51.446;6.800;2024-02-21T02:06:05;9.60;1.00
14614;DHT22;7393;51.446;6.800;2024-02-21T02:08:33;9.60;1.00
14614;DHT22;7393;51.446;6.800;2024-02-21T02:11:00;9.60;1.00
14614;DHT22;7393;51.446;6.800;2024-02-21T02:13:27;9.60;1.00
14614;DHT22;7393;51.446;6.800;2024-02-21T02:15:54;9.60;1.00
14614;DHT22;7393;51.446;6.800;2024-02-21T02:18:22;9.60;1.00
14614;DHT22;7393;51.446;6.800;2024-02-21T02:20:49;9.60;1.00
14614;DHT22;7393;51.446;6.800;2024-02-21T02:23:25;9.60;1.00
14614;DHT22;7393;51.446;6.800;2024-02-21T02:25:52;9.50;1.00
14614;DHT22;7393;51.446;6.800;2024-02-21T02:28:19;9.50;1.00
14614;DHT22;7393;51.446;6.800;2024-02-21T02:30:47;9.50;1.00
14614;DHT22;7393;51.446;6.800;2024-02-21T02:33:14;9.50;1.00
14614;DHT22;7393;51.446;6.800;2024-02-21T02:35:42;9.40;1.00
14614;DHT22;7393;51.446;6.800;2024-02-21T02:38:09;9.50;1.00
14614;DHT22;7393;51.446;6.800;2024-02-21T02:40:39;9.50;1.00
14614;DHT22;7393;51.446;6.800;2024-02-21T02:43:06;9.40;1.00
14614;DHT22;7393;51.446;6.800;2024-02-21T02:45:33;9.40;1.00
14614;DHT22;7393;51.446;6.800;2024-02-21T02:47:59;9.40;1.00
14614;DHT22;7393;51.446;6.800;2024-02-21T02:50:27;9.40;1.00
14614;DHT22;7393;51.446;6.800;2024-02-21T02:52:54;9.40;1.00
14614;DHT22;7393;51.446;6.800;2024-02-21T02:55:21;9.40;1.00
14614;DHT22;7393;51.446;6.800;2024-02-21T02:57:50;9.40;1.00
14614;DHT22;7393;51.446;6.800;2024-02-21T03:00:17;9.30;1.00
14614;DHT22;7393;51.446;6.800;2024-02-21T03:02:46;9.30;1.00
14614;DHT22;7393;51.446;6.800;2024-02-21T03:05:16;9.30;1.00
14614;DHT22;7393;51.446;6.800;2024-02-21T03:07:43;9.30;1.00
14614;DHT22;7393;51.446;6.800;2024-02-21T03:10:11;9.30;1.00
14614;DHT22;7393;51.446;6.800;2024-02-21T03:12:38;9.30;1.00
14614;DHT22;7393;51.446;6.800;2024-02-21T03:15:07;9.30;1.00
14614;DHT22;7393;51.446;6.800;2024-02-21T03:17:34;9.30;1.00
14614;DHT22;7393;51.446;6.800;2024-02-21T03:20:01;9.20;1.00
14614;DHT22;7393;51.446;6.800;2024-02-21T03:22:31;9.30;1.00
14614;DHT22;7393;51.446;6.800;2024-02-21T03:24:58;9.20;1.00
14614;DHT22;7393;51.446;6.800;2024-02-21T03:27:24;9.20;1.00
14614;DHT22;7393;51.446;6.800;2024-02-21T03:29:51;9.20;1.00
14614;DHT22;7393;51.446;6.800;2024-02-21T03:32:19;9.20;1.00
14614;DHT22;7393;51.446;6.800;2024-02-21T03:34:46;9.20;1.00
14614;DHT22;7393;51.446;6.800;2024-02-21T03:37:13;9.20;1.00
14614;DHT22;7393;51.446;6.800;2024-02-21T03:39:40;9.20;1.00
14614;DHT22;7393;51.446;6.800;2024-02-21T03:42:07;9.30;1.00
14614;DHT22;7393;51.446;6.800;2024-02-21T03:44:34;9.20;1.00
14614;DHT22;7393;51.446;6.800;2024-02-21T03:47:01;9.20;1.00
14614;DHT22;7393;51.446;6.800;2024-02-21T03:49:29;9.20;1.00
14614;DHT22;7393;51.446;6.800;2024-02-21T03:51:56;9.20;1.00
14614;DHT22;7393;51.446;6.800;2024-02-21T03:54:23;9.20;1.00
14614;DHT22;7393;51.446;6.800;2024-02-21T03:56:49;9.20;1.00
14614;DHT22;7393;51.446;6.800;2024-02-21T03:59:16;9.20;1.00
14614;DHT22;7393;51.446;6.800;2024-02-21T04:01:43;9.20;1.00
14614;DHT22;7393;51.446;6.800;2024-02-21T04:04:10;9.20;1.00
14614;DHT22;7393;51.446;6.800;2024-02-21T04:06:46;9.20;1.00
14614;DHT22;7393;51.446;6.800;2024-02-21T04:09:13;9.30;1.00
14614;DHT22;7393;51.446;6.800;2024-02-21T04:11:40;9.30;1.00
14614;DHT22;7393;51.446;6.800;2024-02-21T04:14:07;9.30;1.00
14614;DHT22;7393;51.446;6.800;2024-02-21T04:16:34;9.30;1.00
14614;DHT22;7393;51.446;6.800;2024-02-21T04:19:01;9.30;1.00
14614;DHT22;7393;51.446;6.800;2024-02-21T04:21:28;9.20;1.00
14614;DHT22;7393;51.446;6.800;2024-02-21T04:23:56;9.20;1.00
14614;DHT22;7393;51.446;6.800;2024-02-21T04:26:24;9.20;1.00
14614;DHT22;7393;51.446;6.800;2024-02-21T04:28:50;9.20;1.00
14614;DHT22;7393;51.446;6.800;2024-02-21T04:31:17;9.20;1.00
14614;DHT22;7393;51.446;6.800;2024-02-21T04:33:44;9.30;1.00
14614;DHT22;7393;51.446;6.800;2024-02-21T04:36:11;9.30;1.00
14614;DHT22;7393;51.446;6.800;2024-02-21T04:38:38;9.30;1.00
14614;DHT22;7393;51.446;6.800;2024-02-21T04:41:06;9.30;1.00
14614;DHT22;7393;51.446;6.800;2024-02-21T04:43:33;9.30;1.00
14614;DHT22;7393;51.446;6.800;2024-02-21T04:46:00;9.30;1.00
14614;DHT22;7393;51.446;6.800;2024-02-21T04:48:27;9.30;1.00
14614;DHT22;7393;51.446;6.800;2024-02-21T04:50:54;9.30;1.00
14614;DHT22;7393;51.446;6.800;2024-02-21T04:53:21;9.30;1.00
14614;DHT22;7393;51.446;6.800;2024-02-21T04:55:48;9.30;1.00
14614;DHT22;7393;51.446;6.800;2024-02-21T04:58:16;9.40;1.00
14614;DHT22;7393;51.446;6.800;2024-02-21T05:00:43;9.30;1.00
14614;DHT22;7393;51.446;6.800;2024-02-21T05:03:09;9.30;1.00
14614;DHT22;7393;51.446;6.800;2024-02-21T05:05:36;9.30;1.00
14614;DHT22;7393;51.446;6.800;2024-02-21T05:08:03;9.30;1.00
14614;DHT22;7393;51.446;6.800;2024-02-21T05:10:30;9.30;1.00
14614;DHT22;7393;51.446;6.800;2024-02-21T05:12:57;9.30;1.00
14614;DHT22;7393;51.446;6.800;2024-02-21T05:15:25;9.30;1.00
14614;DHT22;7393;51.446;6.800;2024-02-21T05:17:52;9.30;1.00
14614;DHT22;7393;51.446;6.800;2024-02-21T05:20:19;9.30;1.00
14614;DHT22;7393;51.446;6.800;2024-02-21T05:22:46;9.30;1.00
14614;DHT22;7393;51.446;6.800;2024-02-21T05:25:13;9.30;1.00
14614;DHT22;7393;51.446;6.800;2024-02-21T05:27:40;9.30;1.00
14614;DHT22;7393;51.446;6.800;2024-02-21T05:30:07;9.30;1.00
14614;DHT22;7393;51.446;6.800;2024-02-21T05:32:36;9.30;1.00
14614;DHT22;7393;51.446;6.800;2024-02-21T05:35:04;9.30;1.00
14614;DHT22;7393;51.446;6.800;2024-02-21T05:37:30;9.30;1.00
14614;DHT22;7393;51.446;6.800;2024-02-21T05:39:57;9.40;1.00
14614;DHT22;7393;51.446;6.800;2024-02-21T05:42:24;9.30;1.00
14614;DHT22;7393;51.446;6.800;2024-02-21T05:44:51;9.30;1.00
14614;DHT22;7393;51.446;6.800;2024-02-21T05:47:17;9.30;1.00
14614;DHT22;7393;51.446;6.800;2024-02-21T05:49:47;9.30;1.00
14614;DHT22;7393;51.446;6.800;2024-02-21T05:52:14;9.30;1.00
14614;DHT22;7393;51.446;6.800;2024-02-21T05:54:41;9.30;1.00
14614;DHT22;7393;51.446;6.800;2024-02-21T05:57:08;9.30;1.00
14614;DHT22;7393;51.446;6.800;2024-02-21T05:59:35;9.30;1.00
14614;DHT22;7393;51.446;6.800;2024-02-21T06:02:05;9.30;1.00
14614;DHT22;7393;51.446;6.800;2024-02-21T06:04:32;9.30;1.00
14614;DHT22;7393;51.446;6.800;2024-02-21T06:07:00;9.30;1.00
14614;DHT22;7393;51.446;6.800;2024-02-21T06:09:27;9.30;1.00
14614;DHT22;7393;51.446;6.800;2024-02-21T06:11:54;9.30;1.00
14614;DHT22;7393;51.446;6.800;2024-02-21T06:14:20;9.30;1.00
14614;DHT22;7393;51.446;6.800;2024-02-21T06:16:47;9.30;1.00
14614;DHT22;7393;51.446;6.800;2024-02-21T06:19:14;9.40;1.00
14614;DHT22;7393;51.446;6.800;2024-02-21T06:21:41;9.30;1.00
14614;DHT22;7393;51.446;6.800;2024-02-21T06:24:09;9.30;1.00
14614;DHT22;7393;51.446;6.800;2024-02-21T06:26:37;9.30;1.00
14614;DHT22;7393;51.446;6.800;2024-02-21T06:29:05;9.40;1.00
14614;DHT22;7393;51.446;6.800;2024-02-21T06:31:32;9.40;1.00
14614;DHT22;7393;51.446;6.800;2024-02-21T06:33:59;9.30;1.00
14614;DHT22;7393;51.446;6.800;2024-02-21T06:36:25;9.30;1.00
14614;DHT22;7393;51.446;6.800;2024-02-21T06:38:52;9.40;1.00
14614;DHT22;7393;51.446;6.800;2024-02-21T06:41:20;9.30;1.00
14614;DHT22;7393;51.446;6.800;2024-02-21T06:43:47;9.30;1.00
14614;DHT22;7393;51.446;6.800;2024-02-21T06:46:23;9.30;1.00
14614;DHT22;7393;51.446;6.800;2024-02-21T06:48:49;9.30;1.00
14614;DHT22;7393;51.446;6.800;2024-02-21T06:51:16;9.30;1.00
14614;DHT22;7393;51.446;6.800;2024-02-21T06:53:43;9.30;1.00
14614;DHT22;7393;51.446;6.800;2024-02-21T06:56:10;9.30;1.00
14614;DHT22;7393;51.446;6.800;2024-02-21T06:58:38;9.30;1.00
14614;DHT22;7393;51.446;6.800;2024-02-21T07:01:05;9.30;1.00
14614;DHT22;7393;51.446;6.800;2024-02-21T07:03:32;9.40;1.00
14614;DHT22;7393;51.446;6.800;2024-02-21T07:05:59;9.40;1.00
14614;DHT22;7393;51.446;6.800;2024-02-21T07:08:26;9.40;1.00
14614;DHT22;7393;51.446;6.800;2024-02-21T07:10:53;9.40;1.00
14614;DHT22;7393;51.446;6.800;2024-02-21T07:13:20;9.40;1.00
14614;DHT22;7393;51.446;6.800;2024-02-21T07:15:49;9.30;1.00
14614;DHT22;7393;51.446;6.800;2024-02-21T07:18:16;9.30;1.00
14614;DHT22;7393;51.446;6.800;2024-02-21T07:20:43;9.40;1.00
14614;DHT22;7393;51.446;6.800;2024-02-21T07:23:10;9.40;1.00
14614;DHT22;7393;51.446;6.800;2024-02-21T07:25:37;9.30;1.00
14614;DHT22;7393;51.446;6.800;2024-02-21T07:28:04;9.40;1.00
14614;DHT22;7393;51.446;6.800;2024-02-21T07:30:31;9.40;1.00
14614;DHT22;7393;51.446;6.800;2024-02-21T07:32:59;9.40;1.00
14614;DHT22;7393;51.446;6.800;2024-02-21T07:35:25;9.40;1.00
14614;DHT22;7393;51.446;6.800;2024-02-21T07:37:52;9.40;1.00
14614;DHT22;7393;51.446;6.800;2024-02-21T07:40:19;9.40;1.00
14614;DHT22;7393;51.446;6.800;2024-02-21T07:42:46;9.40;1.00
14614;DHT22;7393;51.446;6.800;2024-02-21T07:45:14;9.40;1.00
14614;DHT22;7393;51.446;6.800;2024-02-21T07:47:41;9.40;1.00
14614;DHT22;7393;51.446;6.800;2024-02-21T07:50:10;9.50;1.00
14614;DHT22;7393;51.446;6.800;2024-02-21T07:52:36;9.40;1.00
14614;DHT22;7393;51.446;6.800;2024-02-21T07:55:04;9.50;1.00
14614;DHT22;7393;51.446;6.800;2024-02-21T07:57:31;9.50;1.00
14614;DHT22;7393;51.446;6.800;2024-02-21T07:59:57;9.40;1.00
14614;DHT22;7393;51.446;6.800;2024-02-21T08:02:24;9.50;1.00
14614;DHT22;7393;51.446;6.800;2024-02-21T08:04:51;9.50;1.00
14614;DHT22;7393;51.446;6.800;2024-02-21T08:07:19;9.50;1.00
14614;DHT22;7393;51.446;6.800;2024-02-21T08:09:46;9.50;1.00
14614;DHT22;7393;51.446;6.800;2024-02-21T08:12:12;9.50;1.00
14614;DHT22;7393;51.446;6.800;2024-02-21T08:14:39;9.60;1.00
14614;DHT22;7393;51.446;6.800;2024-02-21T08:17:06;9.60;1.00
14614;DHT22;7393;51.446;6.800;2024-02-21T08:19:32;9.60;1.00
14614;DHT22;7393;51.446;6.800;2024-02-21T08:21:59;9.60;1.00
14614;DHT22;7393;51.446;6.800;2024-02-21T08:24:27;9.60;1.00
14614;DHT22;7393;51.446;6.800;2024-02-21T08:26:54;9.60;1.00
14614;DHT22;7393;51.446;6.800;2024-02-21T08:29:21;9.60;1.00
14614;DHT22;7393;51.446;6.800;2024-02-21T08:31:48;9.70;1.00
14614;DHT22;7393;51.446;6.800;2024-02-21T08:34:15;9.70;1.00
14614;DHT22;7393;51.446;6.800;2024-02-21T08:36:42;9.70;1.00
14614;DHT22;7393;51.446;6.800;2024-02-21T08:39:09;9.60;1.00
14614;DHT22;7393;51.446;6.800;2024-02-21T08:41:37;9.60;1.00
14614;DHT22;7393;51.446;6.800;2024-02-21T08:44:04;9.60;1.00
14614;DHT22;7393;51.446;6.800;2024-02-21T08:46:31;9.60;1.00
14614;DHT22;7393;51.446;6.800;2024-02-21T08:48:58;9.60;1.00
14614;DHT22;7393;51.446;6.800;2024-02-21T08:51:25;9.60;1.00
14614;DHT22;7393;51.446;6.800;2024-02-21T08:53:52;9.50;1.00
14614;DHT22;7393;51.446;6.800;2024-02-21T08:56:19;9.60;1.00
14614;DHT22;7393;51.446;6.800;2024-02-21T08:58:47;9.50;1.00
14614;DHT22;7393;51.446;6.800;2024-02-21T09:01:14;9.50;1.00
14614;DHT22;7393;51.446;6.800;2024-02-21T09:03:40;9.50;1.00
14614;DHT22;7393;51.446;6.800;2024-02-21T09:06:09;9.50;1.00
14614;DHT22;7393;51.446;6.800;2024-02-21T09:08:36;9.50;1.00
14614;DHT22;7393;51.446;6.800;2024-02-21T09:11:03;9.50;1.00
14614;DHT22;7393;51.446;6.800;2024-02-21T09:13:29;9.50;1.00
14614;DHT22;7393;51.446;6.800;2024-02-21T09:15:58;9.60;1.00
14614;DHT22;7393;51.446;6.800;2024-02-21T09:18:25;9.50;1.00
14614;DHT22;7393;51.446;6.800;2024-02-21T09:20:51;9.50;1.00
14614;DHT22;7393;51.446;6.800;2024-02-21T09:23:18;9.50;1.00
14614;DHT22;7393;51.446;6.800;2024-02-21T09:25:46;9.60;1.00
14614;DHT22;7393;51.446;6.800;2024-02-21T09:28:12;9.60;1.00
14614;DHT22;7393;51.446;6.800;2024-02-21T09:30:39;9.60;1.00
14614;DHT22;7393;51.446;6.800;2024-02-21T09:33:08;9.60;1.00
14614;DHT22;7393;51.446;6.800;2024-02-21T09:35:34;9.60;1.00
14614;DHT22;7393;51.446;6.800;2024-02-21T09:38:01;9.60;1.00
14614;DHT22;7393;51.446;6.800;2024-02-21T09:40:29;9.60;1.00
14614;DHT22;7393;51.446;6.800;2024-02-21T09:43:02;9.60;1.00
14614;DHT22;7393;51.446;6.800;2024-02-21T09:45:33;9.70;1.00
14614;DHT22;7393;51.446;6.800;2024-02-21T09:48:15;9.70;1.00
14614;DHT22;7393;51.446;6.800;2024-02-21T09:50:47;9.70;1.00
14614;DHT22;7393;51.446;6.800;2024-02-21T09:53:16;9.70;1.00
14614;DHT22;7393;51.446;6.800;2024-02-21T09:55:43;9.80;1.00
14614;DHT22;7393;51.446;6.800;2024-02-21T09:58:10;9.80;1.00
14614;DHT22;7393;51.446;6.800;2024-02-21T10:00:38;9.80;1.00
14614;DHT22;7393;51.446;6.800;2024-02-21T10:03:04;9.80;1.00
14614;DHT22;7393;51.446;6.800;2024-02-21T10:05:37;9.80;1.00
14614;DHT22;7393;51.446;6.800;2024-02-21T10:08:05;9.80;1.00
14614;DHT22;7393;51.446;6.800;2024-02-21T10:10:41;9.90;1.00
14614;DHT22;7393;51.446;6.800;2024-02-21T10:13:09;9.80;1.00
14614;DHT22;7393;51.446;6.800;2024-02-21T10:15:36;9.90;1.00
14614;DHT22;7393;51.446;6.800;2024-02-21T10:18:04;9.90;1.00
14614;DHT22;7393;51.446;6.800;2024-02-21T10:20:32;9.90;1.00
14614;DHT22;7393;51.446;6.800;2024-02-21T10:23:04;9.80;1.00
14614;DHT22;7393;51.446;6.800;2024-02-21T10:25:34;9.80;1.00
14614;DHT22;7393;51.446;6.800;2024-02-21T10:28:02;9.80;1.00
14614;DHT22;7393;51.446;6.800;2024-02-21T10:30:29;9.80;1.00
14614;DHT22;7393;51.446;6.800;2024-02-21T10:32:56;9.90;1.00
14614;DHT22;7393;51.446;6.800;2024-02-21T10:35:27;9.90;1.00
14614;DHT22;7393;51.446;6.800;2024-02-21T10:37:55;9.90;1.00
14614;DHT22;7393;51.446;6.800;2024-02-21T10:40:24;10.00;1.00
14614;DHT22;7393;51.446;6.800;2024-02-21T10:42:56;10.00;1.00
14614;DHT22;7393;51.446;6.800;2024-02-21T10:45:28;9.90;1.00
14614;DHT22;7393;51.446;6.800;2024-02-21T10:47:56;9.90;1.00
14614;DHT22;7393;51.446;6.800;2024-02-21T10:50:28;10.00;1.00
14614;DHT22;7393;51.446;6.800;2024-02-21T10:53:13;10.10;1.00
14614;DHT22;7393;51.446;6.800;2024-02-21T10:55:50;10.10;1.00
14614;DHT22;7393;51.446;6.800;2024-02-21T10:58:22;10.10;1.00
14614;DHT22;7393;51.446;6.800;2024-02-21T11:00:51;10.20;1.00
14614;DHT22;7393;51.446;6.800;2024-02-21T11:03:19;10.20;1.00
14614;DHT22;7393;51.446;6.800;2024-02-21T11:05:46;10.20;1.00
14614;DHT22;7393;51.446;6.800;2024-02-21T11:08:14;10.30;1.00
14614;DHT22;7393;51.446;6.800;2024-02-21T11:10:47;10.40;1.00
14614;DHT22;7393;51.446;6.800;2024-02-21T11:13:14;10.40;1.00
14614;DHT22;7393;51.446;6.800;2024-02-21T11:15:41;10.40;1.00
14614;DHT22;7393;51.446;6.800;2024-02-21T11:18:08;10.40;1.00
14614;DHT22;7393;51.446;6.800;2024-02-21T11:20:36;10.40;1.00
14614;DHT22;7393;51.446;6.800;2024-02-21T11:23:03;10.40;1.00
14614;DHT22;7393;51.446;6.800;2024-02-21T11:25:30;10.40;1.00
14614;DHT22;7393;51.446;6.800;2024-02-21T11:28:01;10.50;1.00
14614;DHT22;7393;51.446;6.800;2024-02-21T11:30:30;10.50;1.00
14614;DHT22;7393;51.446;6.800;2024-02-21T11:33:01;10.60;1.00
14614;DHT22;7393;51.446;6.800;2024-02-21T11:35:31;10.70;1.00
14614;DHT22;7393;51.446;6.800;2024-02-21T11:38:08;10.70;1.00
14614;DHT22;7393;51.446;6.800;2024-02-21T11:40:38;10.70;1.00
14614;DHT22;7393;51.446;6.800;2024-02-21T11:43:06;10.70;1.00
14614;DHT22;7393;51.446;6.800;2024-02-21T11:45:33;10.70;1.00
14614;DHT22;7393;51.446;6.800;2024-02-21T11:47:59;10.70;1.00
14614;DHT22;7393;51.446;6.800;2024-02-21T11:50:26;10.70;1.00
14614;DHT22;7393;51.446;6.800;2024-02-21T11:52:54;10.80;1.00
14614;DHT22;7393;51.446;6.800;2024-02-21T11:55:22;10.90;1.00
14614;DHT22;7393;51.446;6.800;2024-02-21T11:57:49;10.90;1.00
14614;DHT22;7393;51.446;6.800;2024-02-21T12:00:19;10.90;1.00
14614;DHT22;7393;51.446;6.800;2024-02-21T12:02:47;11.00;1.00
14614;DHT22;7393;51.446;6.800;2024-02-21T12:05:14;10.90;1.00
14614;DHT22;7393;51.446;6.800;2024-02-21T12:07:41;10.90;1.00
14614;DHT22;7393;51.446;6.800;2024-02-21T12:10:08;11.00;1.00
14614;DHT22;7393;51.446;6.800;2024-02-21T12:12:36;11.00;1.00
14614;DHT22;7393;51.446;6.800;2024-02-21T12:15:03;11.00;1.00
14614;DHT22;7393;51.446;6.800;2024-02-21T12:17:32;11.10;1.00
14614;DHT22;7393;51.446;6.800;2024-02-21T12:20:00;11.00;1.00
14614;DHT22;7393;51.446;6.800;2024-02-21T12:22:26;11.00;1.00
14614;DHT22;7393;51.446;6.800;2024-02-21T12:24:53;11.00;1.00
14614;DHT22;7393;51.446;6.800;2024-02-21T12:27:20;11.10;1.00
14614;DHT22;7393;51.446;6.800;2024-02-21T12:29:47;11.00;1.00
14614;DHT22;7393;51.446;6.800;2024-02-21T12:32:14;11.20;1.00
14614;DHT22;7393;51.446;6.800;2024-02-21T12:34:42;11.10;1.00
14614;DHT22;7393;51.446;6.800;2024-02-21T12:37:10;11.10;1.00
14614;DHT22;7393;51.446;6.800;2024-02-21T12:39:38;11.20;1.00
14614;DHT22;7393;51.446;6.800;2024-02-21T12:42:05;11.20;1.00
14614;DHT22;7393;51.446;6.800;2024-02-21T12:44:32;11.20;1.00
14614;DHT22;7393;51.446;6.800;2024-02-21T12:46:59;11.20;1.00
14614;DHT22;7393;51.446;6.800;2024-02-21T12:49:26;11.20;1.00
14614;DHT22;7393;51.446;6.800;2024-02-21T12:51:56;11.30;1.00
14614;DHT22;7393;51.446;6.800;2024-02-21T12:54:23;11.40;1.00
14614;DHT22;7393;51.446;6.800;2024-02-21T12:56:50;11.50;1.00
14614;DHT22;7393;51.446;6.800;2024-02-21T12:59:17;11.50;1.00
14614;DHT22;7393;51.446;6.800;2024-02-21T13:01:43;11.50;1.00
14614;DHT22;7393;51.446;6.800;2024-02-21T13:04:10;11.60;1.00
14614;DHT22;7393;51.446;6.800;2024-02-21T13:06:37;11.60;1.00
14614;DHT22;7393;51.446;6.800;2024-02-21T13:09:05;11.60;1.00
14614;DHT22;7393;51.446;6.800;2024-02-21T13:11:34;11.70;1.00
14614;DHT22;7393;51.446;6.800;2024-02-21T13:14:00;11.70;99.90
14614;DHT22;7393;51.446;6.800;2024-02-21T13:16:26;11.80;99.90
14614;DHT22;7393;51.446;6.800;2024-02-21T13:18:53;11.80;99.90
14614;DHT22;7393;51.446;6.800;2024-02-21T13:21:20;11.80;99.90
14614;DHT22;7393;51.446;6.800;2024-02-21T13:23:47;11.80;99.90
14614;DHT22;7393;51.446;6.800;2024-02-21T13:26:15;11.80;99.90
14614;DHT22;7393;51.446;6.800;2024-02-21T13:28:42;11.80;99.90
14614;DHT22;7393;51.446;6.800;2024-02-21T13:31:10;11.90;99.90
14614;DHT22;7393;51.446;6.800;2024-02-21T13:33:37;12.00;99.90
14614;DHT22;7393;51.446;6.800;2024-02-21T13:36:04;12.00;99.90
14614;DHT22;7393;51.446;6.800;2024-02-21T13:38:31;12.00;99.90
14614;DHT22;7393;51.446;6.800;2024-02-21T13:40:58;12.10;99.90
14614;DHT22;7393;51.446;6.800;2024-02-21T13:43:27;12.10;99.90
14614;DHT22;7393;51.446;6.800;2024-02-21T13:45:56;12.20;99.90
14614;DHT22;7393;51.446;6.800;2024-02-21T13:48:23;12.20;99.90
14614;DHT22;7393;51.446;6.800;2024-02-21T13:50:51;12.20;99.90
14614;DHT22;7393;51.446;6.800;2024-02-21T13:53:17;12.20;99.90
14614;DHT22;7393;51.446;6.800;2024-02-21T13:55:46;12.20;99.90
14614;DHT22;7393;51.446;6.800;2024-02-21T13:58:13;12.20;99.90
14614;DHT22;7393;51.446;6.800;2024-02-21T14:00:41;12.20;99.90
14614;DHT22;7393;51.446;6.800;2024-02-21T14:03:08;12.20;99.90
14614;DHT22;7393;51.446;6.800;2024-02-21T14:05:35;12.10;99.90
14614;DHT22;7393;51.446;6.800;2024-02-21T14:08:02;12.10;99.90
14614;DHT22;7393;51.446;6.800;2024-02-21T14:10:31;12.10;99.90
14614;DHT22;7393;51.446;6.800;2024-02-21T14:12:57;12.10;99.90
14614;DHT22;7393;51.446;6.800;2024-02-21T14:15:24;12.20;99.90
14614;DHT22;7393;51.446;6.800;2024-02-21T14:17:52;12.10;99.90
14614;DHT22;7393;51.446;6.800;2024-02-21T14:20:20;12.10;99.90
14614;DHT22;7393;51.446;6.800;2024-02-21T14:22:47;12.10;99.90
14614;DHT22;7393;51.446;6.800;2024-02-21T14:25:14;12.10;99.90
14614;DHT22;7393;51.446;6.800;2024-02-21T14:27:41;12.20;99.90
14614;DHT22;7393;51.446;6.800;2024-02-21T14:30:09;12.20;99.90
14614;DHT22;7393;51.446;6.800;2024-02-21T14:32:36;12.20;99.90
14614;DHT22;7393;51.446;6.800;2024-02-21T14:35:05;12.20;99.90
14614;DHT22;7393;51.446;6.800;2024-02-21T14:37:32;12.20;99.90
14614;DHT22;7393;51.446;6.800;2024-02-21T14:39:59;12.20;99.90
14614;DHT22;7393;51.446;6.800;2024-02-21T14:42:27;12.20;99.90
14614;DHT22;7393;51.446;6.800;2024-02-21T14:44:53;12.20;99.90
14614;DHT22;7393;51.446;6.800;2024-02-21T14:47:29;12.20;99.90
14614;DHT22;7393;51.446;6.800;2024-02-21T14:49:56;12.20;99.90
14614;DHT22;7393;51.446;6.800;2024-02-21T14:52:25;12.10;99.90
14614;DHT22;7393;51.446;6.800;2024-02-21T14:54:53;12.20;99.90
14614;DHT22;7393;51.446;6.800;2024-02-21T14:57:20;12.10;99.90
14614;DHT22;7393;51.446;6.800;2024-02-21T14:59:46;12.10;99.90
14614;DHT22;7393;51.446;6.800;2024-02-21T15:02:15;12.10;99.90
14614;DHT22;7393;51.446;6.800;2024-02-21T15:04:42;12.10;99.90
14614;DHT22;7393;51.446;6.800;2024-02-21T15:07:08;12.10;99.90
14614;DHT22;7393;51.446;6.800;2024-02-21T15:09:37;12.00;99.90
14614;DHT22;7393;51.446;6.800;2024-02-21T15:12:04;12.00;99.90
14614;DHT22;7393;51.446;6.800;2024-02-21T15:14:31;12.00;99.90
14614;DHT22;7393;51.446;6.800;2024-02-21T15:16:58;12.00;99.90
14614;DHT22;7393;51.446;6.800;2024-02-21T15:19:25;12.10;99.90
14614;DHT22;7393;51.446;6.800;2024-02-21T15:21:51;12.00;99.90
14614;DHT22;7393;51.446;6.800;2024-02-21T15:24:19;12.00;99.90
14614;DHT22;7393;51.446;6.800;2024-02-21T15:26:47;12.00;99.90
14614;DHT22;7393;51.446;6.800;2024-02-21T15:29:14;11.90;99.90
14614;DHT22;7393;51.446;6.800;2024-02-21T15:31:41;11.90;99.90
14614;DHT22;7393;51.446;6.800;2024-02-21T15:34:13;11.90;99.90
14614;DHT22;7393;51.446;6.800;2024-02-21T15:36:41;11.90;99.90
14614;DHT22;7393;51.446;6.800;2024-02-21T15:39:08;11.90;99.90
14614;DHT22;7393;51.446;6.800;2024-02-21T15:41:36;11.90;99.90
14614;DHT22;7393;51.446;6.800;2024-02-21T15:44:04;11.80;99.90
14614;DHT22;7393;51.446;6.800;2024-02-21T15:46:31;11.80;99.90
14614;DHT22;7393;51.446;6.800;2024-02-21T15:48:59;11.80;99.90
14614;DHT22;7393;51.446;6.800;2024-02-21T15:51:27;11.80;99.90
14614;DHT22;7393;51.446;6.800;2024-02-21T15:53:55;11.80;99.90
14614;DHT22;7393;51.446;6.800;2024-02-21T15:56:22;11.80;99.90
14614;DHT22;7393;51.446;6.800;2024-02-21T15:58:49;11.80;99.90
14614;DHT22;7393;51.446;6.800;2024-02-21T16:01:18;11.80;99.90
14614;DHT22;7393;51.446;6.800;2024-02-21T16:03:44;11.80;99.90
14614;DHT22;7393;51.446;6.800;2024-02-21T16:06:11;11.90;99.90
14614;DHT22;7393;51.446;6.800;2024-02-21T16:08:38;11.80;99.90
14614;DHT22;7393;51.446;6.800;2024-02-21T16:11:06;11.80;99.90